createdAt,value
2018-12-30T00:01:38.421Z,-0.10
2018-12-30T00:04:07.924Z,-0.10
2018-12-30T00:06:37.529Z,-0.10
2018-12-30T00:09:07.715Z,-0.10
2018-12-30T00:11:37.435Z,-0.10
2018-12-30T00:14:06.852Z,-0.20
2018-12-30T00:16:36.254Z,-0.20
2018-12-30T00:19:24.754Z,-0.20
2018-12-30T00:21:54.258Z,-0.30
2018-12-30T00:24:23.662Z,-0.20
2018-12-30T00:26:53.066Z,-0.20
2018-12-30T00:29:22.479Z,-0.20
2018-12-30T00:31:51.878Z,-0.20
2018-12-30T00:36:56.432Z,-0.20
2018-12-30T00:39:26.053Z,-0.20
2018-12-30T00:41:55.458Z,-0.20
2018-12-30T00:44:24.866Z,-0.20
2018-12-30T00:46:54.270Z,-0.20
2018-12-30T00:49:23.671Z,-0.10
2018-12-30T00:51:53.122Z,-0.20
2018-12-30T00:54:22.538Z,-0.20
2018-12-30T00:56:51.934Z,-0.30
2018-12-30T00:59:21.346Z,-0.30
2018-12-30T01:01:50.759Z,-0.30
2018-12-30T01:04:20.228Z,-0.20
2018-12-30T01:06:49.609Z,-0.20
2018-12-30T01:09:19.143Z,-0.20
2018-12-30T01:11:48.554Z,-0.20
2018-12-30T01:14:17.990Z,-0.20
2018-12-30T01:16:47.802Z,-0.30
2018-12-30T01:19:17.222Z,-0.20
2018-12-30T01:21:46.638Z,-0.30
2018-12-30T01:24:16.083Z,-0.20
2018-12-30T01:26:45.450Z,-0.20
2018-12-30T01:29:14.872Z,-0.20
2018-12-30T01:31:44.274Z,-0.30
2018-12-30T01:34:13.687Z,-0.20
2018-12-30T01:36:43.116Z,-0.10
2018-12-30T01:39:12.518Z,-0.20
2018-12-30T01:41:41.927Z,-0.10
2018-12-30T01:44:11.350Z,-0.20
2018-12-30T01:46:40.771Z,-0.20
2018-12-30T01:49:10.171Z,-0.20
2018-12-30T01:51:39.578Z,-0.20
2018-12-30T01:54:08.995Z,-0.10
2018-12-30T01:56:38.543Z,-0.20
2018-12-30T01:59:07.959Z,-0.20
2018-12-30T02:01:37.437Z,-0.20
2018-12-30T02:04:06.782Z,-0.20
2018-12-30T02:06:36.194Z,-0.10
2018-12-30T02:09:07.262Z,-0.20
2018-12-30T02:11:55.730Z,-0.20
2018-12-30T02:17:30.206Z,-0.10
2018-12-30T02:19:59.607Z,-0.10
2018-12-30T02:22:29.075Z,-0.20
2018-12-30T02:25:17.566Z,-0.10
2018-12-30T02:43:13.288Z,-0.10
2018-12-30T02:46:01.734Z,-0.10
2018-12-30T02:51:25.562Z,-0.20
2018-12-30T05:16:13.551Z,-0.30
2018-12-30T05:46:30.841Z,-0.40
2018-12-30T05:49:19.236Z,-0.40
2018-12-30T06:25:46.015Z,-0.30
2018-12-30T06:28:34.415Z,-0.40
2018-12-30T06:34:24.579Z,-0.30
2018-12-30T06:36:53.989Z,-0.20
2018-12-30T06:39:42.463Z,-0.20
2018-12-30T06:42:30.879Z,-0.20
2018-12-30T06:51:25.859Z,-0.50
2018-12-30T06:53:55.192Z,-0.40
2018-12-30T06:56:43.731Z,-0.40
2018-12-30T06:59:13.118Z,-0.40
2018-12-30T07:01:42.455Z,-0.30
2018-12-30T07:04:11.792Z,-0.30
2018-12-30T07:06:41.187Z,-0.40
2018-12-30T07:09:29.671Z,-0.40
2018-12-30T07:11:58.999Z,-0.40
2018-12-30T07:14:28.436Z,-0.40
2018-12-30T07:16:57.974Z,-0.30
2018-12-30T07:19:27.343Z,-0.30
2018-12-30T07:21:56.691Z,-0.30
2018-12-30T07:24:26.015Z,-0.30
2018-12-30T07:26:55.436Z,-0.40
2018-12-30T07:29:24.781Z,-0.40
2018-12-30T07:31:54.191Z,-0.30
2018-12-30T07:34:42.587Z,-0.30
2018-12-30T07:37:11.974Z,-0.30
2018-12-30T07:39:41.394Z,-0.30
2018-12-30T07:42:10.722Z,-0.30
2018-12-30T07:44:40.306Z,-0.30
2018-12-30T07:47:28.702Z,-0.30
2018-12-30T07:49:58.326Z,-0.30
2018-12-30T07:52:27.675Z,-0.40
2018-12-30T07:54:57.002Z,-0.30
2018-12-30T07:57:26.427Z,-0.40
2018-12-30T08:00:14.805Z,-0.30
2018-12-30T08:27:26.163Z,-0.10
2018-12-30T08:30:14.555Z,-0.20
2018-12-30T08:33:02.931Z,-0.10
2018-12-30T08:38:37.411Z,-0.10
2018-12-30T08:41:25.951Z,-0.10
2018-12-30T08:44:13.663Z,0.00
2018-12-30T08:46:43.078Z,0.00
2018-12-30T08:49:31.452Z,0.00
2018-12-30T08:52:01.018Z,0.00
2018-12-30T08:54:30.414Z,0.00
2018-12-30T08:57:19.012Z,0.00
2018-12-30T09:00:07.503Z,0.10
2018-12-30T09:02:55.981Z,0.10
2018-12-30T09:05:25.375Z,0.10
2018-12-30T09:08:13.846Z,0.20
2018-12-30T09:10:43.276Z,0.20
2018-12-30T09:13:31.851Z,0.10
2018-12-30T09:16:01.182Z,0.20
2018-12-30T09:18:30.631Z,0.10
2018-12-30T09:20:59.962Z,0.20
2018-12-30T09:23:48.395Z,0.20
2018-12-30T09:26:17.719Z,0.20
2018-12-30T09:28:47.038Z,0.30
2018-12-30T09:31:16.379Z,0.30
2018-12-30T09:33:45.719Z,0.40
2018-12-30T09:36:15.046Z,0.40
2018-12-30T09:38:44.370Z,0.30
2018-12-30T09:41:13.694Z,0.30
2018-12-30T09:43:43.018Z,0.30
2018-12-30T09:46:12.355Z,0.30
2018-12-30T09:48:41.683Z,0.40
2018-12-30T09:51:11.027Z,0.40
2018-12-30T09:53:45.118Z,0.40
2018-12-30T09:56:30.435Z,0.40
2018-12-30T09:58:59.753Z,0.40
2018-12-30T10:01:29.108Z,0.40
2018-12-30T10:03:58.508Z,0.40
2018-12-30T10:06:27.851Z,0.40
2018-12-30T10:08:57.198Z,0.30
2018-12-30T10:11:26.536Z,0.30
2018-12-30T10:13:55.887Z,0.30
2018-12-30T10:16:25.230Z,0.20
2018-12-30T10:18:54.578Z,0.20
2018-12-30T10:21:23.913Z,0.20
2018-12-30T10:23:53.310Z,0.30
2018-12-30T10:26:22.652Z,0.30
2018-12-30T10:28:51.995Z,0.30
2018-12-30T10:31:21.328Z,0.30
2018-12-30T10:33:50.667Z,0.30
2018-12-30T10:36:19.986Z,0.30
2018-12-30T10:38:49.318Z,0.30
2018-12-30T10:41:18.651Z,0.40
2018-12-30T10:43:48.074Z,0.40
2018-12-30T10:46:17.488Z,0.40
2018-12-30T10:48:46.861Z,0.40
2018-12-30T10:51:16.224Z,0.50
2018-12-30T10:53:45.624Z,0.40
2018-12-30T10:56:14.949Z,0.60
2018-12-30T10:58:44.398Z,0.60
2018-12-30T11:01:13.718Z,0.60
2018-12-30T11:03:43.072Z,0.50
2018-12-30T11:06:12.402Z,0.50
2018-12-30T11:08:41.738Z,0.50
2018-12-30T11:11:11.090Z,0.50
2018-12-30T11:13:40.437Z,0.60
2018-12-30T11:16:09.825Z,0.60
2018-12-30T11:18:39.162Z,0.60
2018-12-30T11:21:08.515Z,0.60
2018-12-30T11:23:37.919Z,0.80
2018-12-30T11:26:07.266Z,0.80
2018-12-30T11:28:36.614Z,0.80
2018-12-30T11:31:24.987Z,0.80
2018-12-30T11:34:13.363Z,0.80
2018-12-30T11:36:57.846Z,0.80
2018-12-30T11:39:27.166Z,0.80
2018-12-30T11:42:15.682Z,0.80
2018-12-30T11:45:04.474Z,0.80
2018-12-30T11:47:49.051Z,0.80
2018-12-30T11:59:46.935Z,0.90
2018-12-30T12:02:35.306Z,0.90
2018-12-30T12:05:04.746Z,0.90
2018-12-30T12:07:53.135Z,0.90
2018-12-30T12:19:38.019Z,0.90
2018-12-30T12:37:33.850Z,0.90
2018-12-30T12:40:03.206Z,0.90
2018-12-30T12:42:32.535Z,0.90
2018-12-30T12:45:01.871Z,0.90
2018-12-30T12:47:31.389Z,0.90
2018-12-30T12:50:00.798Z,0.90
2018-12-30T12:52:30.173Z,0.80
2018-12-30T12:54:59.582Z,0.80
2018-12-30T12:57:28.931Z,0.80
2018-12-30T12:59:58.349Z,0.70
2018-12-30T13:02:27.680Z,0.70
2018-12-30T13:04:56.981Z,0.70
2018-12-30T13:07:26.306Z,0.60
2018-12-30T13:09:55.651Z,0.60
2018-12-30T13:12:25.055Z,0.60
2018-12-30T13:14:54.393Z,0.60
2018-12-30T13:17:23.716Z,0.60
2018-12-30T13:19:53.048Z,0.60
2018-12-30T13:22:22.430Z,0.50
2018-12-30T13:24:51.763Z,0.50
2018-12-30T13:27:21.095Z,0.60
2018-12-30T13:29:50.535Z,0.50
2018-12-30T13:32:19.864Z,0.50
2018-12-30T13:35:08.306Z,0.40
2018-12-30T13:37:37.641Z,0.50
2018-12-30T13:40:07.144Z,0.50
2018-12-30T13:42:36.577Z,0.40
2018-12-30T13:45:06.250Z,0.50
2018-12-30T13:47:35.570Z,0.50
2018-12-30T13:50:05.603Z,0.50
2018-12-30T13:52:34.978Z,0.50
2018-12-30T13:55:04.678Z,0.60
2018-12-30T13:57:34.082Z,0.50
2018-12-30T14:00:03.637Z,0.60
2018-12-30T14:02:33.031Z,0.60
2018-12-30T14:05:02.359Z,0.70
2018-12-30T14:07:31.738Z,0.70
2018-12-30T14:10:01.071Z,0.70
2018-12-30T14:12:30.443Z,0.60
2018-12-30T14:14:59.787Z,0.70
2018-12-30T14:17:29.222Z,0.70
2018-12-30T14:19:58.599Z,0.80
2018-12-30T14:22:28.010Z,0.80
2018-12-30T14:24:57.417Z,0.80
2018-12-30T14:27:45.879Z,0.80
2018-12-30T14:30:15.207Z,0.80
2018-12-30T14:32:44.529Z,0.80
2018-12-30T14:35:13.928Z,0.80
2018-12-30T14:38:02.377Z,0.80
2018-12-30T14:40:31.817Z,0.80
2018-12-30T14:43:20.266Z,0.80
2018-12-30T14:49:08.250Z,0.90
2018-12-30T14:51:56.671Z,0.80
2018-12-30T14:57:30.862Z,0.90
2018-12-30T15:00:19.231Z,0.90
2018-12-30T15:03:07.667Z,0.90
2018-12-30T15:05:37.022Z,1.00
2018-12-30T15:08:06.346Z,0.90
2018-12-30T15:10:54.791Z,0.90
2018-12-30T15:13:24.173Z,0.90
2018-12-30T15:16:12.554Z,0.90
2018-12-30T15:18:41.884Z,0.90
2018-12-30T15:21:30.367Z,0.90
2018-12-30T15:23:59.731Z,0.90
2018-12-30T15:26:48.136Z,0.90
2018-12-30T15:42:08.306Z,1.00
2018-12-30T15:44:37.695Z,1.00
2018-12-30T15:47:26.131Z,1.00
2018-12-30T15:49:55.740Z,1.00
2018-12-30T15:52:25.186Z,1.00
2018-12-30T15:54:54.626Z,1.00
2018-12-30T15:57:43.072Z,1.00
2018-12-30T16:00:31.606Z,1.00
2018-12-30T16:06:08.523Z,1.00
2018-12-30T16:33:33.232Z,1.10
2018-12-30T16:36:02.624Z,1.10
2018-12-30T16:38:51.014Z,1.00
2018-12-30T16:41:39.420Z,1.10
2018-12-30T16:44:08.782Z,1.10
2018-12-30T16:46:57.170Z,1.10
2018-12-30T17:01:47.254Z,1.10
2018-12-30T17:04:16.662Z,1.10
2018-12-30T17:07:05.062Z,1.10
2018-12-30T17:09:53.544Z,1.10
2018-12-30T17:40:09.320Z,1.10
2018-12-30T17:42:57.846Z,1.20
2018-12-30T17:45:46.231Z,1.20
2018-12-30T17:51:20.983Z,1.20
2018-12-30T17:54:15.152Z,1.10
2018-12-30T18:05:56.024Z,1.10
2018-12-30T18:08:44.407Z,1.00
2018-12-30T18:11:32.831Z,1.00
2018-12-30T18:20:12.330Z,1.00
2018-12-30T18:22:41.656Z,1.00
2018-12-30T18:25:10.994Z,1.00
2018-12-30T18:27:40.395Z,1.00
2018-12-30T18:30:09.806Z,1.00
2018-12-30T18:32:39.160Z,1.00
2018-12-30T18:35:08.658Z,0.90
2018-12-30T18:37:37.993Z,0.90
2018-12-30T18:40:07.715Z,0.90
2018-12-30T18:42:56.107Z,0.90
2018-12-30T18:45:44.480Z,0.90
2018-12-30T18:48:13.831Z,0.90
2018-12-30T18:51:02.201Z,0.90
2018-12-30T19:02:46.874Z,0.90
2018-12-30T19:05:35.283Z,0.90
2018-12-30T19:14:15.130Z,0.80
2018-12-30T19:16:44.458Z,0.80
2018-12-30T19:19:13.903Z,0.80
2018-12-30T19:21:43.232Z,0.80
2018-12-30T19:24:12.642Z,0.70
2018-12-30T19:26:41.981Z,0.80
2018-12-30T19:29:11.307Z,0.80
2018-12-30T19:31:40.659Z,0.80
2018-12-30T19:34:10.007Z,0.80
2018-12-30T19:36:39.338Z,0.80
2018-12-30T19:39:08.671Z,0.70
2018-12-30T19:41:37.998Z,0.70
2018-12-30T19:44:07.403Z,0.70
2018-12-30T19:46:36.833Z,0.70
2018-12-30T19:49:06.170Z,0.80
2018-12-30T19:51:54.550Z,0.70
2018-12-30T19:54:23.951Z,0.70
2018-12-30T19:57:12.395Z,0.80
2018-12-30T20:03:00.659Z,0.80
2018-12-30T20:05:29.986Z,0.80
2018-12-30T20:08:18.495Z,0.70
2018-12-30T20:11:06.934Z,0.70
2018-12-30T20:13:36.311Z,0.70
2018-12-30T20:16:05.698Z,0.70
2018-12-30T20:18:35.027Z,0.70
2018-12-30T20:21:04.430Z,0.80
2018-12-30T20:23:33.753Z,0.80
2018-12-30T20:32:13.821Z,0.80
2018-12-30T20:34:43.148Z,0.70
2018-12-30T20:37:12.570Z,0.70
2018-12-30T20:39:41.898Z,0.70
2018-12-30T20:42:11.229Z,0.70
2018-12-30T20:44:59.678Z,0.60
2018-12-30T20:47:48.063Z,0.60
2018-12-30T20:53:22.516Z,0.60
2018-12-30T20:56:10.947Z,0.40
2018-12-30T20:58:40.359Z,0.30
2018-12-30T21:01:28.735Z,0.40
2018-12-30T22:02:37.093Z,0.30
2018-12-30T22:05:25.502Z,0.30
2018-12-30T22:11:00.250Z,0.30
2018-12-30T22:13:48.712Z,0.20
2018-12-30T22:16:37.231Z,0.20
2018-12-30T22:59:15.200Z,-0.20
2018-12-30T23:02:03.886Z,-0.20
2018-12-30T23:10:44.458Z,-0.30
2018-12-30T23:13:32.869Z,-0.30
2018-12-30T23:43:18.606Z,-0.50
2018-12-30T23:45:47.935Z,-0.40
2018-12-30T23:48:36.311Z,-0.50
2018-12-30T23:53:49.300Z,-0.50
2018-12-30T23:56:18.699Z,-0.50
2018-12-30T23:59:07.108Z,-0.60
